X  Chiuso Dati meteorologici dell'aviazione (METAR)     LIML Milano Linate Airport
Temperatura
30°C Temperatura
17°C Punto di rugiada
46% Umidità



Vento
8 KM/O
5 MPH
2 M/S
4 KTS



210°
SSW
Condizioni attuali

Parzialmente nuvoloso Parzialmente nuvoloso
Pressione 1013.92 (hPa) - 29.94 (inHg)
Visibilità 6.2 (miglio) - 10 (km)
Aeroporto
Codice-Aeroporto LIML

Posizione: Milano Linate Airport
Distanza: 6 (km)

Metar:
LIML 171750Z 21004KT 9999 FEW050 30/17 Q1014 NOSIG

Ore: 17-06-2021 19:50 CEST